sensor_id;sensor_type;location;lat;lon;timestamp;pressure;altitude;pressure_sealevel;temperature;humidity
64053;BME280;50299;49.524;8.536;2022-12-07T00:01:41;100689.94;;;1.86;72.53
64053;BME280;50299;49.524;8.536;2022-12-07T00:04:12;100689.06;;;1.80;80.55
64053;BME280;50299;49.524;8.536;2022-12-07T00:06:41;100685.13;;;2.08;80.33
64053;BME280;50299;49.524;8.536;2022-12-07T00:09:12;100692.28;;;0.97;69.69
64053;BME280;50299;49.524;8.536;2022-12-07T00:11:39;100688.88;;;0.85;75.76
64053;BME280;50299;49.524;8.536;2022-12-07T00:14:07;100687.53;;;1.15;79.25
64053;BME280;50299;49.524;8.536;2022-12-07T00:16:36;100681.22;;;1.89;90.36
64053;BME280;50299;49.524;8.536;2022-12-07T00:19:04;100675.44;;;2.48;91.78
64053;BME280;50299;49.524;8.536;2022-12-07T00:21:32;100671.41;;;2.71;89.41
64053;BME280;50299;49.524;8.536;2022-12-07T00:23:59;100666.78;;;2.97;88.78
64053;BME280;50299;49.524;8.536;2022-12-07T00:26:28;100671.16;;;3.08;84.72
64053;BME280;50299;49.524;8.536;2022-12-07T00:29:00;100663.06;;;2.15;67.15
64053;BME280;50299;49.524;8.536;2022-12-07T00:31:30;100662.22;;;0.82;73.66
64053;BME280;50299;49.524;8.536;2022-12-07T00:34:00;100668.75;;;0.05;75.11
64053;BME280;50299;49.524;8.536;2022-12-07T00:36:27;100660.44;;;0.66;83.69
64053;BME280;50299;49.524;8.536;2022-12-07T00:38:54;100656.84;;;1.67;89.83
64053;BME280;50299;49.524;8.536;2022-12-07T00:41:23;100655.94;;;2.09;86.42
64053;BME280;50299;49.524;8.536;2022-12-07T00:43:50;100658.50;;;2.41;89.40
64053;BME280;50299;49.524;8.536;2022-12-07T00:46:18;100649.81;;;2.75;90.08
64053;BME280;50299;49.524;8.536;2022-12-07T00:48:45;100653.63;;;3.19;91.57
64053;BME280;50299;49.524;8.536;2022-12-07T00:51:13;100655.56;;;3.14;82.41
64053;BME280;50299;49.524;8.536;2022-12-07T00:53:40;100650.59;;;3.67;93.91
64053;BME280;50299;49.524;8.536;2022-12-07T00:56:21;100647.97;;;4.06;92.89
64053;BME280;50299;49.524;8.536;2022-12-07T00:59:06;100663.09;;;3.88;86.16
64053;BME280;50299;49.524;8.536;2022-12-07T01:01:35;100664.81;;;3.59;70.51
64053;BME280;50299;49.524;8.536;2022-12-07T01:04:02;100649.78;;;2.39;67.73
64053;BME280;50299;49.524;8.536;2022-12-07T01:06:30;100657.50;;;1.89;75.49
64053;BME280;50299;49.524;8.536;2022-12-07T01:08:57;100656.38;;;2.63;89.81
64053;BME280;50299;49.524;8.536;2022-12-07T01:11:26;100654.47;;;3.00;89.03
64053;BME280;50299;49.524;8.536;2022-12-07T01:13:54;100653.66;;;3.30;88.75
64053;BME280;50299;49.524;8.536;2022-12-07T01:16:22;100649.81;;;3.51;89.66
64053;BME280;50299;49.524;8.536;2022-12-07T01:18:51;100647.03;;;3.66;86.81
64053;BME280;50299;49.524;8.536;2022-12-07T01:21:23;100650.28;;;3.79;82.58
64053;BME280;50299;49.524;8.536;2022-12-07T01:23:50;100645.88;;;3.78;85.18
64053;BME280;50299;49.524;8.536;2022-12-07T01:26:20;100645.16;;;3.62;78.05
64053;BME280;50299;49.524;8.536;2022-12-07T01:28:47;100649.53;;;3.48;79.77
64053;BME280;50299;49.524;8.536;2022-12-07T01:31:16;100648.13;;;3.71;81.67
64053;BME280;50299;49.524;8.536;2022-12-07T01:33:46;100650.38;;;3.28;75.87
64053;BME280;50299;49.524;8.536;2022-12-07T01:38:41;100659.81;;;3.81;90.34
64053;BME280;50299;49.524;8.536;2022-12-07T01:41:08;100662.13;;;3.54;75.85
64053;BME280;50299;49.524;8.536;2022-12-07T01:43:35;100666.72;;;2.66;66.91
64053;BME280;50299;49.524;8.536;2022-12-07T01:46:03;100663.38;;;2.34;71.81
64053;BME280;50299;49.524;8.536;2022-12-07T01:48:34;100663.66;;;2.32;79.79
64053;BME280;50299;49.524;8.536;2022-12-07T01:51:06;100653.03;;;2.36;77.81
64053;BME280;50299;49.524;8.536;2022-12-07T01:53:36;100659.91;;;2.69;88.19
64053;BME280;50299;49.524;8.536;2022-12-07T01:56:04;100661.56;;;3.06;87.33
64053;BME280;50299;49.524;8.536;2022-12-07T01:58:32;100654.50;;;3.25;86.42
64053;BME280;50299;49.524;8.536;2022-12-07T02:00:58;100653.38;;;3.41;85.11
64053;BME280;50299;49.524;8.536;2022-12-07T02:03:30;100655.00;;;3.42;81.10
64053;BME280;50299;49.524;8.536;2022-12-07T02:05:59;100645.72;;;3.38;81.04
64053;BME280;50299;49.524;8.536;2022-12-07T02:08:26;100641.06;;;3.44;83.36
64053;BME280;50299;49.524;8.536;2022-12-07T02:10:53;100643.50;;;3.56;85.61
64053;BME280;50299;49.524;8.536;2022-12-07T02:13:22;100643.78;;;3.59;78.99
64053;BME280;50299;49.524;8.536;2022-12-07T02:21:48;100625.47;;;2.32;73.28
64053;BME280;50299;49.524;8.536;2022-12-07T02:27:40;100619.38;;;1.42;74.40
64053;BME280;50299;49.524;8.536;2022-12-07T02:30:12;100612.38;;;1.56;81.26
64053;BME280;50299;49.524;8.536;2022-12-07T02:32:58;100630.16;;;1.69;83.65
64053;BME280;50299;49.524;8.536;2022-12-07T02:38:26;100641.22;;;2.10;87.28
64053;BME280;50299;49.524;8.536;2022-12-07T02:41:04;100640.78;;;2.54;88.01
64053;BME280;50299;49.524;8.536;2022-12-07T02:43:36;100643.53;;;2.69;90.13
64053;BME280;50299;49.524;8.536;2022-12-07T02:46:08;100639.72;;;3.41;95.19
64053;BME280;50299;49.524;8.536;2022-12-07T02:48:37;100633.63;;;3.65;94.58
64053;BME280;50299;49.524;8.536;2022-12-07T02:51:05;100626.50;;;3.74;91.06
64053;BME280;50299;49.524;8.536;2022-12-07T02:53:33;100627.63;;;3.68;86.81
64053;BME280;50299;49.524;8.536;2022-12-07T02:59:02;100626.59;;;3.43;81.73
64053;BME280;50299;49.524;8.536;2022-12-07T03:01:45;100625.44;;;3.65;88.65
64053;BME280;50299;49.524;8.536;2022-12-07T03:07:01;100619.47;;;3.58;80.23
64053;BME280;50299;49.524;8.536;2022-12-07T03:09:35;100611.81;;;3.50;78.49
64053;BME280;50299;49.524;8.536;2022-12-07T03:12:10;100609.66;;;3.41;79.87
64053;BME280;50299;49.524;8.536;2022-12-07T03:14:50;100609.91;;;3.40;77.54
64053;BME280;50299;49.524;8.536;2022-12-07T03:17:26;100606.88;;;3.52;84.27
64053;BME280;50299;49.524;8.536;2022-12-07T03:19:59;100605.44;;;3.69;85.98
64053;BME280;50299;49.524;8.536;2022-12-07T03:22:31;100603.81;;;3.68;78.46
64053;BME280;50299;49.524;8.536;2022-12-07T03:25:03;100599.97;;;3.80;84.74
64053;BME280;50299;49.524;8.536;2022-12-07T03:27:43;100607.19;;;3.45;73.80
64053;BME280;50299;49.524;8.536;2022-12-07T03:30:22;100600.66;;;3.05;72.39
64053;BME280;50299;49.524;8.536;2022-12-07T03:32:59;100591.69;;;2.59;72.39
64053;BME280;50299;49.524;8.536;2022-12-07T03:35:41;100590.03;;;2.42;75.67
64053;BME280;50299;49.524;8.536;2022-12-07T03:38:28;100584.78;;;2.26;75.62
64053;BME280;50299;49.524;8.536;2022-12-07T03:41:00;100579.56;;;1.99;72.93
64053;BME280;50299;49.524;8.536;2022-12-07T03:43:29;100581.38;;;1.73;74.47
64053;BME280;50299;49.524;8.536;2022-12-07T03:46:16;100579.56;;;1.99;81.79
64053;BME280;50299;49.524;8.536;2022-12-07T03:48:59;100585.00;;;1.99;79.92
64053;BME280;50299;49.524;8.536;2022-12-07T03:51:38;100591.69;;;2.59;87.99
64053;BME280;50299;49.524;8.536;2022-12-07T03:54:19;100581.84;;;2.73;83.05
64053;BME280;50299;49.524;8.536;2022-12-07T03:56:50;100586.78;;;2.71;78.44
64053;BME280;50299;49.524;8.536;2022-12-07T03:59:18;100583.75;;;2.67;76.91
64053;BME280;50299;49.524;8.536;2022-12-07T04:01:53;100576.63;;;2.41;73.72
64053;BME280;50299;49.524;8.536;2022-12-07T04:04:21;100578.56;;;2.30;71.26
64053;BME280;50299;49.524;8.536;2022-12-07T04:06:48;100581.25;;;2.15;71.05
64053;BME280;50299;49.524;8.536;2022-12-07T04:09:15;100579.28;;;2.00;77.95
64053;BME280;50299;49.524;8.536;2022-12-07T04:11:45;100582.34;;;2.19;80.45
64053;BME280;50299;49.524;8.536;2022-12-07T04:14:11;100579.28;;;2.00;71.32
64053;BME280;50299;49.524;8.536;2022-12-07T04:16:52;100582.59;;;2.17;81.03
64053;BME280;50299;49.524;8.536;2022-12-07T04:19:21;100583.19;;;2.40;77.84
64053;BME280;50299;49.524;8.536;2022-12-07T04:21:48;100582.91;;;2.31;72.17
64053;BME280;50299;49.524;8.536;2022-12-07T04:24:15;100574.97;;;2.30;81.65
64053;BME280;50299;49.524;8.536;2022-12-07T04:26:43;100578.41;;;1.79;71.43
64053;BME280;50299;49.524;8.536;2022-12-07T04:29:09;100583.34;;;1.87;82.06
64053;BME280;50299;49.524;8.536;2022-12-07T04:31:36;100592.66;;;2.07;84.18
64053;BME280;50299;49.524;8.536;2022-12-07T04:34:03;100585.66;;;2.52;88.64
64053;BME280;50299;49.524;8.536;2022-12-07T04:36:31;100596.03;;;2.80;85.86
64053;BME280;50299;49.524;8.536;2022-12-07T04:38:57;100578.00;;;2.74;79.17
64053;BME280;50299;49.524;8.536;2022-12-07T04:41:24;100587.28;;;2.78;84.25
64053;BME280;50299;49.524;8.536;2022-12-07T04:43:54;100582.09;;;3.02;85.26
64053;BME280;50299;49.524;8.536;2022-12-07T04:46:23;100587.81;;;3.11;79.72
64053;BME280;50299;49.524;8.536;2022-12-07T04:48:53;100586.47;;;3.03;77.56
64053;BME280;50299;49.524;8.536;2022-12-07T04:51:25;100581.28;;;2.97;80.65
64053;BME280;50299;49.524;8.536;2022-12-07T04:53:52;100570.91;;;2.93;78.63
64053;BME280;50299;49.524;8.536;2022-12-07T04:56:18;100577.19;;;2.53;73.30
64053;BME280;50299;49.524;8.536;2022-12-07T04:58:46;100575.84;;;2.51;72.97
64053;BME280;50299;49.524;8.536;2022-12-07T05:01:16;100574.47;;;2.58;84.79
64053;BME280;50299;49.524;8.536;2022-12-07T05:03:44;100567.63;;;2.97;88.50
64053;BME280;50299;49.524;8.536;2022-12-07T05:06:11;100570.91;;;2.53;71.99
64053;BME280;50299;49.524;8.536;2022-12-07T05:08:39;100570.09;;;2.37;79.21
64053;BME280;50299;49.524;8.536;2022-12-07T05:11:06;100574.75;;;2.52;82.45
64053;BME280;50299;49.524;8.536;2022-12-07T05:13:33;100573.09;;;2.40;74.89
64053;BME280;50299;49.524;8.536;2022-12-07T05:15:59;100571.72;;;2.23;79.63
64053;BME280;50299;49.524;8.536;2022-12-07T05:18:26;100571.47;;;2.44;80.12
64053;BME280;50299;49.524;8.536;2022-12-07T05:20:53;100581.56;;;2.59;79.18
64053;BME280;50299;49.524;8.536;2022-12-07T05:23:19;100576.38;;;2.88;86.30
64053;BME280;50299;49.524;8.536;2022-12-07T05:25:46;100585.38;;;3.09;88.53
64053;BME280;50299;49.524;8.536;2022-12-07T05:28:12;100579.06;;;3.04;73.90
64053;BME280;50299;49.524;8.536;2022-12-07T05:30:39;100580.66;;;3.40;90.06
64053;BME280;50299;49.524;8.536;2022-12-07T05:33:05;100576.72;;;3.77;90.04
64053;BME280;50299;49.524;8.536;2022-12-07T05:35:32;100582.63;;;4.00;90.73
64053;BME280;50299;49.524;8.536;2022-12-07T05:37:58;100575.44;;;4.14;88.25
64053;BME280;50299;49.524;8.536;2022-12-07T05:40:24;100584.75;;;4.13;84.53
64053;BME280;50299;49.524;8.536;2022-12-07T05:42:51;100577.44;;;4.03;84.48
64053;BME280;50299;49.524;8.536;2022-12-07T05:45:17;100581.19;;;4.12;86.80
64053;BME280;50299;49.524;8.536;2022-12-07T05:47:44;100582.38;;;3.96;79.50
64053;BME280;50299;49.524;8.536;2022-12-07T05:50:10;100594.19;;;3.81;81.26
64053;BME280;50299;49.524;8.536;2022-12-07T05:52:39;100582.81;;;4.13;85.72
64053;BME280;50299;49.524;8.536;2022-12-07T05:55:06;100585.16;;;3.91;76.15
64053;BME280;50299;49.524;8.536;2022-12-07T05:57:33;100591.28;;;3.57;78.46
64053;BME280;50299;49.524;8.536;2022-12-07T05:59:59;100577.69;;;3.42;77.58
64053;BME280;50299;49.524;8.536;2022-12-07T06:02:26;100583.34;;;3.66;88.15
64053;BME280;50299;49.524;8.536;2022-12-07T06:04:53;100581.59;;;3.85;89.69
64053;BME280;50299;49.524;8.536;2022-12-07T06:07:19;100579.34;;;3.98;88.23
64053;BME280;50299;49.524;8.536;2022-12-07T06:09:45;100581.94;;;4.28;92.58
64053;BME280;50299;49.524;8.536;2022-12-07T06:12:13;100590.94;;;4.29;86.48
64053;BME280;50299;49.524;8.536;2022-12-07T06:15:05;100586.75;;;4.41;86.98
64053;BME280;50299;49.524;8.536;2022-12-07T06:17:32;100589.00;;;4.34;83.78
64053;BME280;50299;49.524;8.536;2022-12-07T06:19:58;100578.00;;;4.39;86.43
64053;BME280;50299;49.524;8.536;2022-12-07T06:22:26;100584.44;;;4.59;90.93
64053;BME280;50299;49.524;8.536;2022-12-07T06:24:53;100591.03;;;4.58;85.18
64053;BME280;50299;49.524;8.536;2022-12-07T06:27:19;100593.56;;;4.49;83.16
64053;BME280;50299;49.524;8.536;2022-12-07T06:29:46;100582.69;;;3.89;75.35
64053;BME280;50299;49.524;8.536;2022-12-07T06:32:12;100581.03;;;3.88;84.20
64053;BME280;50299;49.524;8.536;2022-12-07T06:34:39;100591.44;;;3.91;78.98
64053;BME280;50299;49.524;8.536;2022-12-07T06:37:05;100585.13;;;3.96;81.99
64053;BME280;50299;49.524;8.536;2022-12-07T06:39:31;100593.25;;;4.06;82.97
64053;BME280;50299;49.524;8.536;2022-12-07T06:41:58;100588.56;;;4.17;80.34
64053;BME280;50299;49.524;8.536;2022-12-07T06:44:25;100593.38;;;3.81;75.82
64053;BME280;50299;49.524;8.536;2022-12-07T06:46:51;100592.13;;;3.58;79.42
64053;BME280;50299;49.524;8.536;2022-12-07T06:49:38;100593.22;;;3.52;75.85
64053;BME280;50299;49.524;8.536;2022-12-07T06:52:04;100592.91;;;3.63;85.69
64053;BME280;50299;49.524;8.536;2022-12-07T06:54:31;100586.59;;;3.68;82.24
64053;BME280;50299;49.524;8.536;2022-12-07T06:56:58;100595.94;;;3.52;78.52
64053;BME280;50299;49.524;8.536;2022-12-07T06:59:24;100588.75;;;3.76;87.05
64053;BME280;50299;49.524;8.536;2022-12-07T07:01:51;100591.94;;;3.99;86.69
64053;BME280;50299;49.524;8.536;2022-12-07T07:04:17;100599.31;;;3.98;82.16
64053;BME280;50299;49.524;8.536;2022-12-07T07:06:44;100600.38;;;4.02;86.96
64053;BME280;50299;49.524;8.536;2022-12-07T07:09:12;100600.03;;;4.19;87.30
64053;BME280;50299;49.524;8.536;2022-12-07T07:11:39;100599.75;;;4.21;88.37
64053;BME280;50299;49.524;8.536;2022-12-07T07:14:05;100600.09;;;4.09;85.44
64053;BME280;50299;49.524;8.536;2022-12-07T07:16:32;100603.41;;;4.01;84.12
64053;BME280;50299;49.524;8.536;2022-12-07T07:18:58;100614.34;;;4.01;81.16
64053;BME280;50299;49.524;8.536;2022-12-07T07:21:24;100604.78;;;3.98;83.07
64053;BME280;50299;49.524;8.536;2022-12-07T07:23:51;100604.81;;;3.93;79.52
64053;BME280;50299;49.524;8.536;2022-12-07T07:26:18;100605.94;;;3.82;80.42
64053;BME280;50299;49.524;8.536;2022-12-07T07:28:48;100604.59;;;3.79;83.58
64053;BME280;50299;49.524;8.536;2022-12-07T07:31:17;100610.47;;;4.12;88.11
64053;BME280;50299;49.524;8.536;2022-12-07T07:33:47;100609.06;;;4.14;83.25
64053;BME280;50299;49.524;8.536;2022-12-07T07:36:13;100606.84;;;4.22;84.14
64053;BME280;50299;49.524;8.536;2022-12-07T07:38:40;100608.91;;;3.96;80.16
64053;BME280;50299;49.524;8.536;2022-12-07T07:41:06;100603.25;;;3.77;82.79
64053;BME280;50299;49.524;8.536;2022-12-07T07:43:33;100602.16;;;3.73;76.21
64053;BME280;50299;49.524;8.536;2022-12-07T07:45:59;100606.88;;;3.62;80.82
64053;BME280;50299;49.524;8.536;2022-12-07T07:48:26;100614.53;;;3.55;76.32
64053;BME280;50299;49.524;8.536;2022-12-07T07:50:52;100614.75;;;3.68;84.97
64053;BME280;50299;49.524;8.536;2022-12-07T07:53:19;100620.59;;;4.06;89.71
64053;BME280;50299;49.524;8.536;2022-12-07T07:55:52;100622.31;;;4.47;89.97
64053;BME280;50299;49.524;8.536;2022-12-07T07:58:20;100623.91;;;4.53;82.50
64053;BME280;50299;49.524;8.536;2022-12-07T08:00:47;100616.13;;;4.26;80.22
64053;BME280;50299;49.524;8.536;2022-12-07T08:03:13;100621.28;;;4.37;87.50
64053;BME280;50299;49.524;8.536;2022-12-07T08:05:39;100624.78;;;4.82;93.75
64053;BME280;50299;49.524;8.536;2022-12-07T08:08:06;100627.19;;;4.94;85.25
64053;BME280;50299;49.524;8.536;2022-12-07T08:10:32;100630.03;;;4.79;80.60
64053;BME280;50299;49.524;8.536;2022-12-07T08:13:01;100633.88;;;4.78;81.69
64053;BME280;50299;49.524;8.536;2022-12-07T08:15:48;100628.69;;;4.71;79.37
64053;BME280;50299;49.524;8.536;2022-12-07T08:18:15;100629.72;;;4.80;87.12
64053;BME280;50299;49.524;8.536;2022-12-07T08:20:42;100631.31;;;4.91;81.65
64053;BME280;50299;49.524;8.536;2022-12-07T08:23:09;100626.91;;;4.96;86.30
64053;BME280;50299;49.524;8.536;2022-12-07T08:25:36;100636.94;;;5.05;85.12
64053;BME280;50299;49.524;8.536;2022-12-07T08:28:06;100627.44;;;4.98;79.61
64053;BME280;50299;49.524;8.536;2022-12-07T08:30:33;100630.72;;;4.55;76.01
64053;BME280;50299;49.524;8.536;2022-12-07T08:32:59;100631.38;;;4.42;78.68
64053;BME280;50299;49.524;8.536;2022-12-07T08:35:26;100627.00;;;4.41;79.91
64053;BME280;50299;49.524;8.536;2022-12-07T08:37:53;100629.13;;;4.49;82.53
64053;BME280;50299;49.524;8.536;2022-12-07T08:40:19;100634.06;;;3.98;73.68
64053;BME280;50299;49.524;8.536;2022-12-07T08:42:51;100630.88;;;3.75;78.40
64053;BME280;50299;49.524;8.536;2022-12-07T08:45:18;100627.31;;;3.75;86.87
64053;BME280;50299;49.524;8.536;2022-12-07T08:47:55;100632.72;;;3.95;83.43
64053;BME280;50299;49.524;8.536;2022-12-07T08:50:23;100633.91;;;3.63;71.24
64053;BME280;50299;49.524;8.536;2022-12-07T08:52:55;100626.31;;;3.45;76.48
64053;BME280;50299;49.524;8.536;2022-12-07T08:55:23;100631.53;;;3.21;74.69
64053;BME280;50299;49.524;8.536;2022-12-07T08:57:50;100623.84;;;3.23;81.04
64053;BME280;50299;49.524;8.536;2022-12-07T09:00:17;100627.72;;;3.27;77.08
64053;BME280;50299;49.524;8.536;2022-12-07T09:02:44;100620.06;;;2.93;77.88
64053;BME280;50299;49.524;8.536;2022-12-07T09:05:13;100633.19;;;2.97;79.72
64053;BME280;50299;49.524;8.536;2022-12-07T09:07:47;100627.16;;;3.05;79.24
64053;BME280;50299;49.524;8.536;2022-12-07T09:10:14;100631.25;;;3.12;80.83
64053;BME280;50299;49.524;8.536;2022-12-07T09:12:40;100629.88;;;3.40;81.59
64053;BME280;50299;49.524;8.536;2022-12-07T09:15:07;100628.22;;;3.55;85.42
64053;BME280;50299;49.524;8.536;2022-12-07T09:17:34;100630.13;;;3.44;80.22
64053;BME280;50299;49.524;8.536;2022-12-07T09:20:04;100635.59;;;3.54;75.06
64053;BME280;50299;49.524;8.536;2022-12-07T09:22:31;100631.25;;;3.38;75.01
64053;BME280;50299;49.524;8.536;2022-12-07T09:24:58;100635.34;;;2.89;71.81
64053;BME280;50299;49.524;8.536;2022-12-07T09:27:26;100631.53;;;3.21;84.66
64053;BME280;50299;49.524;8.536;2022-12-07T09:29:52;100637.00;;;3.21;74.80
64053;BME280;50299;49.524;8.536;2022-12-07T09:32:19;100637.50;;;3.43;81.17
64053;BME280;50299;49.524;8.536;2022-12-07T09:34:45;100643.72;;;3.75;83.41
64053;BME280;50299;49.524;8.536;2022-12-07T09:37:19;100638.44;;;3.93;82.53
64053;BME280;50299;49.524;8.536;2022-12-07T09:39:46;100637.28;;;4.10;78.41
64053;BME280;50299;49.524;8.536;2022-12-07T09:42:27;100636.84;;;4.42;80.88
64053;BME280;50299;49.524;8.536;2022-12-07T09:44:55;100644.03;;;4.33;75.97
64053;BME280;50299;49.524;8.536;2022-12-07T09:47:22;100633.59;;;4.40;83.48
64053;BME280;50299;49.524;8.536;2022-12-07T09:49:49;100632.78;;;4.34;69.09
64053;BME280;50299;49.524;8.536;2022-12-07T09:52:22;100631.16;;;4.33;84.21
64053;BME280;50299;49.524;8.536;2022-12-07T09:54:52;100631.06;;;4.43;74.72
64053;BME280;50299;49.524;8.536;2022-12-07T09:57:27;100620.06;;;4.09;75.53
64053;BME280;50299;49.524;8.536;2022-12-07T10:00:00;100623.69;;;3.95;75.74
64053;BME280;50299;49.524;8.536;2022-12-07T10:02:34;100616.47;;;4.14;74.74
64053;BME280;50299;49.524;8.536;2022-12-07T10:05:04;100624.31;;;3.71;67.54
64053;BME280;50299;49.524;8.536;2022-12-07T10:07:31;100611.50;;;3.66;77.95
64053;BME280;50299;49.524;8.536;2022-12-07T10:09:58;100618.53;;;3.83;70.25
64053;BME280;50299;49.524;8.536;2022-12-07T10:12:24;100604.38;;;3.65;71.72
64053;BME280;50299;49.524;8.536;2022-12-07T10:15:04;100612.91;;;3.43;76.61
64053;BME280;50299;49.524;8.536;2022-12-07T10:17:49;100615.69;;;3.28;71.74
64053;BME280;50299;49.524;8.536;2022-12-07T10:20:23;100613.78;;;2.93;74.37
64053;BME280;50299;49.524;8.536;2022-12-07T10:22:55;100612.69;;;2.74;69.50
64053;BME280;50299;49.524;8.536;2022-12-07T10:25:24;100599.28;;;2.87;76.50
64053;BME280;50299;49.524;8.536;2022-12-07T10:28:13;100591.41;;;2.96;75.32
64053;BME280;50299;49.524;8.536;2022-12-07T10:33:28;100590.56;;;2.90;73.91
64053;BME280;50299;49.524;8.536;2022-12-07T10:35:55;100602.59;;;2.89;74.28
64053;BME280;50299;49.524;8.536;2022-12-07T10:38:25;100598.63;;;3.72;89.63
64053;BME280;50299;49.524;8.536;2022-12-07T10:41:06;100601.16;;;4.13;83.18
64053;BME280;50299;49.524;8.536;2022-12-07T10:43:33;100603.22;;;4.31;77.96
64053;BME280;50299;49.524;8.536;2022-12-07T10:46:18;100594.13;;;4.85;91.85
64053;BME280;50299;49.524;8.536;2022-12-07T10:49:27;100590.84;;;4.83;78.48
64053;BME280;50299;49.524;8.536;2022-12-07T10:52:01;100583.19;;;5.38;89.07
64053;BME280;50299;49.524;8.536;2022-12-07T10:57:57;100587.19;;;5.94;80.22
64053;BME280;50299;49.524;8.536;2022-12-07T11:00:34;100586.00;;;5.04;60.04
64053;BME280;50299;49.524;8.536;2022-12-07T11:03:23;100576.34;;;5.12;83.66
64053;BME280;50299;49.524;8.536;2022-12-07T11:08:57;100577.59;;;3.57;61.05
64053;BME280;50299;49.524;8.536;2022-12-07T11:11:34;100581.28;;;2.66;63.84
64053;BME280;50299;49.524;8.536;2022-12-07T11:17:19;100569.56;;;2.35;69.93
64053;BME280;50299;49.524;8.536;2022-12-07T11:20:00;100566.00;;;2.60;78.08
64053;BME280;50299;49.524;8.536;2022-12-07T11:22:50;100560.81;;;2.58;67.02
64053;BME280;50299;49.524;8.536;2022-12-07T11:25:32;100552.22;;;3.52;83.89
64053;BME280;50299;49.524;8.536;2022-12-07T11:31:01;100546.97;;;3.65;63.75
64053;BME280;50299;49.524;8.536;2022-12-07T11:33:35;100547.91;;;3.30;71.91
64053;BME280;50299;49.524;8.536;2022-12-07T11:36:17;100550.69;;;2.94;61.53
64053;BME280;50299;49.524;8.536;2022-12-07T11:38:57;100531.88;;;2.73;63.67
64053;BME280;50299;49.524;8.536;2022-12-07T11:41:29;100536.53;;;2.67;64.81
64053;BME280;50299;49.524;8.536;2022-12-07T11:47:06;100531.31;;;2.70;68.66
64053;BME280;50299;49.524;8.536;2022-12-07T11:50:10;100533.50;;;3.04;75.16
64053;BME280;50299;49.524;8.536;2022-12-07T11:55:47;100523.59;;;3.88;80.75
64053;BME280;50299;49.524;8.536;2022-12-07T11:58:22;100520.13;;;4.56;82.39
64053;BME280;50299;49.524;8.536;2022-12-07T12:01:05;100508.63;;;4.54;71.46
64053;BME280;50299;49.524;8.536;2022-12-07T12:03:38;100517.34;;;4.61;67.35
64053;BME280;50299;49.524;8.536;2022-12-07T12:06:06;100514.09;;;4.88;56.77
64053;BME280;50299;49.524;8.536;2022-12-07T12:08:39;100513.16;;;4.35;68.48
64053;BME280;50299;49.524;8.536;2022-12-07T12:18:01;100514.59;;;3.28;68.55
64053;BME280;50299;49.524;8.536;2022-12-07T12:20:40;100510.59;;;3.65;65.77
64053;BME280;50299;49.524;8.536;2022-12-07T12:23:14;100505.56;;;3.33;64.57
64053;BME280;50299;49.524;8.536;2022-12-07T12:25:46;100504.69;;;3.42;60.95
64053;BME280;50299;49.524;8.536;2022-12-07T12:28:40;100496.63;;;3.72;65.57
64053;BME280;50299;49.524;8.536;2022-12-07T12:33:50;100497.38;;;3.87;57.44
64053;BME280;50299;49.524;8.536;2022-12-07T12:46:56;100488.53;;;4.01;59.80
64053;BME280;50299;49.524;8.536;2022-12-07T12:51:53;100477.81;;;4.73;59.89
64053;BME280;50299;49.524;8.536;2022-12-07T12:54:22;100478.66;;;4.97;64.56
64053;BME280;50299;49.524;8.536;2022-12-07T12:56:54;100478.44;;;4.94;60.92
64053;BME280;50299;49.524;8.536;2022-12-07T12:59:32;100478.19;;;4.61;59.95
64053;BME280;50299;49.524;8.536;2022-12-07T13:07:52;100467.69;;;4.68;54.72
64053;BME280;50299;49.524;8.536;2022-12-07T13:10:24;100468.81;;;4.67;60.77
64053;BME280;50299;49.524;8.536;2022-12-07T13:15:53;100463.25;;;3.25;57.46
64053;BME280;50299;49.524;8.536;2022-12-07T13:23:31;100451.06;;;2.77;63.93
64053;BME280;50299;49.524;8.536;2022-12-07T13:26:16;100454.22;;;3.19;60.00
64053;BME280;50299;49.524;8.536;2022-12-07T13:33:56;100451.50;;;3.14;63.72
64053;BME280;50299;49.524;8.536;2022-12-07T13:36:29;100450.41;;;3.15;58.83
64053;BME280;50299;49.524;8.536;2022-12-07T13:41:44;100435.50;;;2.82;63.08
64053;BME280;50299;49.524;8.536;2022-12-07T13:44:15;100425.69;;;2.66;59.66
64053;BME280;50299;49.524;8.536;2022-12-07T13:47:15;100439.09;;;2.57;60.20
64053;BME280;50299;49.524;8.536;2022-12-07T13:50:51;100430.00;;;2.87;65.48
64053;BME280;50299;49.524;8.536;2022-12-07T13:53:00;100429.00;;;2.63;61.20
64053;BME280;50299;49.524;8.536;2022-12-07T13:55:28;100434.41;;;2.88;62.54
64053;BME280;50299;49.524;8.536;2022-12-07T13:57:55;100429.50;;;2.70;60.88
64053;BME280;50299;49.524;8.536;2022-12-07T14:00:27;100433.53;;;2.98;62.61
64053;BME280;50299;49.524;8.536;2022-12-07T14:03:02;100424.84;;;2.81;58.95
64053;BME280;50299;49.524;8.536;2022-12-07T14:05:33;100433.66;;;2.37;59.58
64053;BME280;50299;49.524;8.536;2022-12-07T14:10:56;100428.91;;;2.93;60.14
64053;BME280;50299;49.524;8.536;2022-12-07T14:13:37;100428.88;;;2.99;59.82
64053;BME280;50299;49.524;8.536;2022-12-07T14:16:26;100436.59;;;2.81;62.12
64053;BME280;50299;49.524;8.536;2022-12-07T14:18:56;100443.47;;;2.48;59.08
64053;BME280;50299;49.524;8.536;2022-12-07T14:21:28;100434.19;;;2.49;65.04
64053;BME280;50299;49.524;8.536;2022-12-07T14:24:19;100436.66;;;2.45;59.51
64053;BME280;50299;49.524;8.536;2022-12-07T14:26:51;100436.91;;;2.54;58.92
64053;BME280;50299;49.524;8.536;2022-12-07T14:31:58;100433.16;;;2.14;62.33
64053;BME280;50299;49.524;8.536;2022-12-07T14:34:35;100445.13;;;2.49;65.26
64053;BME280;50299;49.524;8.536;2022-12-07T14:37:01;100437.97;;;2.84;64.31
64053;BME280;50299;49.524;8.536;2022-12-07T14:39:28;100442.41;;;3.39;73.76
64053;BME280;50299;49.524;8.536;2022-12-07T14:41:54;100438.06;;;3.33;61.79
64053;BME280;50299;49.524;8.536;2022-12-07T14:44:23;100435.31;;;3.38;64.12
64053;BME280;50299;49.524;8.536;2022-12-07T14:46:54;100428.38;;;2.97;61.67
64053;BME280;50299;49.524;8.536;2022-12-07T14:49:42;100429.81;;;2.68;59.91
64053;BME280;50299;49.524;8.536;2022-12-07T14:52:18;100426.56;;;2.56;70.59